Time;durP1;ratioP1;P1;durP2;ratioP2;P2;SDS_P1;SDS_P2;PMS_P1;PMS_P2;Temp;Humidity;BMP_temperature;BMP_pressure;BME280_temperature;BME280_humidity;BME280_pressure;Samples;Min_cycle;Max_cycle;Signal;HPM_P1;HPM_P2
2021/12/02 00:00:08;;;;;;;1.33;1.00;;;6.60;99.90;;;;;;5051627;28;20108;-80
2021/12/02 00:02:36;;;;;;;1.87;1.40;;;6.70;99.90;;;;;;5062874;28;20036;-80
2021/12/02 00:05:03;;;;;;;1.67;1.10;;;6.70;99.90;;;;;;5050276;28;20402;-80
2021/12/02 00:07:28;;;;;;;1.13;1.00;;;6.70;99.90;;;;;;5036350;28;20025;-80
2021/12/02 00:09:55;;;;;;;2.13;1.17;;;6.70;99.90;;;;;;5050159;28;20021;-80
2021/12/02 00:12:20;;;;;;;2.03;1.10;;;6.70;99.90;;;;;;5049897;28;20017;-80
2021/12/02 00:14:48;;;;;;;1.60;1.43;;;6.60;99.90;;;;;;5050136;28;20033;-80
2021/12/02 00:17:37;;;;;;;1.50;1.20;;;6.60;99.90;;;;;;5049627;28;20126;-80
2021/12/02 00:23:35;;;;;;;1.50;1.10;;;6.50;99.90;;;;;;5050491;28;20020;-80
2021/12/02 00:26:11;;;;;;;2.07;1.20;;;6.70;99.90;;;;;;5049862;28;20024;-80
2021/12/02 00:28:39;;;;;;;1.23;1.10;;;6.60;99.90;;;;;;5049861;28;20392;-80
2021/12/02 00:31:04;;;;;;;1.27;1.10;;;6.60;99.90;;;;;;5049874;28;20096;-80
2021/12/02 00:33:32;;;;;;;1.37;1.20;;;6.50;99.90;;;;;;5049889;28;20032;-80
2021/12/02 00:35:58;;;;;;;1.23;1.00;;;6.40;99.90;;;;;;5050010;28;20048;-80
2021/12/02 00:38:25;;;;;;;2.17;1.17;;;6.40;99.90;;;;;;5049818;28;20052;-80
2021/12/02 00:40:52;;;;;;;1.40;0.97;;;6.30;99.90;;;;;;5049706;28;20028;-80
2021/12/02 00:43:18;;;;;;;1.07;0.97;;;6.30;99.90;;;;;;5049886;28;20033;-80
2021/12/02 00:45:44;;;;;;;1.23;1.03;;;6.30;99.90;;;;;;5049811;28;20082;-80
2021/12/02 00:48:13;;;;;;;2.00;1.03;;;6.30;99.90;;;;;;5049446;28;20033;-80
2021/12/02 00:50:43;;;;;;;1.10;1.00;;;6.30;99.90;;;;;;5031947;28;20017;-80
2021/12/02 00:53:10;;;;;;;0.93;0.90;;;6.40;99.90;;;;;;5031523;28;20512;-80
2021/12/02 00:55:38;;;;;;;1.00;0.90;;;6.40;99.90;;;;;;5032040;28;20494;-80
2021/12/02 00:58:04;;;;;;;1.27;0.90;;;6.40;99.90;;;;;;5049706;28;20041;-80
2021/12/02 01:00:30;;;;;;;1.20;1.10;;;6.30;99.90;;;;;;5049473;28;20025;-80
2021/12/02 01:02:58;;;;;;;1.90;1.03;;;6.30;99.90;;;;;;5049778;28;20109;-79
2021/12/02 01:05:25;;;;;;;1.30;1.10;;;6.40;99.90;;;;;;5049463;28;20025;-80
2021/12/02 01:07:51;;;;;;;0.90;0.90;;;6.30;99.90;;;;;;5049453;28;20082;-80
2021/12/02 01:10:18;;;;;;;1.20;0.90;;;6.30;99.90;;;;;;5049000;28;20355;-80
2021/12/02 01:12:44;;;;;;;1.60;1.03;;;6.30;99.90;;;;;;5049661;28;20147;-80
2021/12/02 01:15:09;;;;;;;1.23;1.00;;;6.30;99.90;;;;;;5049564;28;20100;-80
2021/12/02 01:17:35;;;;;;;0.93;0.83;;;6.10;99.90;;;;;;5049598;28;20025;-80
2021/12/02 01:20:00;;;;;;;1.70;1.00;;;6.20;99.90;;;;;;5049737;28;20021;-80
2021/12/02 01:22:28;;;;;;;1.33;1.00;;;6.10;99.90;;;;;;5049231;28;20600;-80
2021/12/02 01:24:54;;;;;;;1.23;1.10;;;6.20;99.90;;;;;;5049358;28;20067;-80
2021/12/02 01:27:23;;;;;;;1.40;0.90;;;6.10;99.90;;;;;;5049373;28;20028;-80
2021/12/02 01:29:53;;;;;;;2.40;0.90;;;6.00;99.90;;;;;;5033577;28;20464;-80
2021/12/02 01:32:20;;;;;;;1.67;0.93;;;6.10;99.90;;;;;;5053163;28;20527;-80
2021/12/02 01:34:47;;;;;;;1.53;1.13;;;6.10;99.90;;;;;;5053037;28;20104;-80
2021/12/02 01:37:14;;;;;;;1.23;0.90;;;6.10;99.90;;;;;;5053148;28;20032;-80
2021/12/02 01:39:40;;;;;;;1.63;0.93;;;6.10;99.90;;;;;;5034966;28;20021;-80
2021/12/02 01:42:10;;;;;;;1.77;1.07;;;6.00;99.90;;;;;;5052971;28;20024;-80
2021/12/02 01:44:40;;;;;;;2.63;1.00;;;6.00;99.90;;;;;;5052732;28;20025;-80
2021/12/02 01:47:13;;;;;;;1.57;1.10;;;6.00;99.90;;;;;;5053286;28;20029;-80
2021/12/02 01:49:41;;;;;;;2.53;1.10;;;5.90;99.90;;;;;;5052862;28;20091;-80
2021/12/02 01:52:12;;;;;;;1.10;1.00;;;5.90;99.90;;;;;;5052962;28;20028;-80
2021/12/02 01:54:44;;;;;;;1.30;1.00;;;5.90;99.90;;;;;;5052478;28;20048;-81
2021/12/02 01:57:31;;;;;;;2.83;1.00;;;5.90;99.90;;;;;;5052586;28;20048;-81
2021/12/02 02:00:21;;;;;;;3.03;1.20;;;5.90;99.90;;;;;;5052708;28;20029;-80
2021/12/02 02:02:48;;;;;;;2.17;1.00;;;5.90;99.90;;;;;;5052940;28;20038;-80
2021/12/02 02:05:15;;;;;;;1.53;1.00;;;6.00;99.90;;;;;;5034596;28;20347;-80
2021/12/02 02:08:06;;;;;;;2.53;1.07;;;5.90;99.90;;;;;;5052746;28;20033;-80
2021/12/02 02:10:35;;;;;;;1.50;1.10;;;5.80;99.90;;;;;;5052118;28;20025;-81
2021/12/02 02:13:05;;;;;;;3.47;1.30;;;5.90;99.90;;;;;;5052575;28;20672;-81
2021/12/02 02:15:31;;;;;;;2.53;1.20;;;5.90;99.90;;;;;;5052196;28;20053;-81
2021/12/02 02:18:03;;;;;;;1.43;0.93;;;5.90;99.90;;;;;;5052505;28;20083;-80
2021/12/02 02:23:26;;;;;;;1.77;1.13;;;5.90;99.90;;;;;;5052404;28;20043;-80
2021/12/02 02:25:51;;;;;;;2.43;1.27;;;5.90;99.90;;;;;;5052022;28;20466;-80
2021/12/02 02:28:17;;;;;;;2.53;1.10;;;5.90;99.90;;;;;;5052058;28;20035;-80
2021/12/02 02:30:43;;;;;;;2.23;1.20;;;5.90;99.90;;;;;;5052141;28;20530;-80
2021/12/02 02:33:11;;;;;;;1.70;1.40;;;5.90;99.90;;;;;;5052033;28;20524;-80
2021/12/02 02:35:38;;;;;;;2.03;1.13;;;5.90;99.90;;;;;;5052050;28;20051;-80
2021/12/02 02:38:04;;;;;;;2.20;1.37;;;5.90;99.90;;;;;;5051634;28;20049;-80
2021/12/02 02:40:31;;;;;;;1.93;1.10;;;5.90;99.90;;;;;;5051144;28;20029;-80
2021/12/02 02:42:59;;;;;;;2.50;1.30;;;5.80;99.90;;;;;;5051463;28;20074;-80
2021/12/02 02:45:25;;;;;;;2.73;1.40;;;5.80;99.90;;;;;;5051844;28;20136;-80
2021/12/02 02:47:52;;;;;;;2.27;1.30;;;5.80;99.90;;;;;;5051401;28;20108;-80
2021/12/02 02:50:17;;;;;;;3.03;1.50;;;5.80;99.90;;;;;;5033577;28;20052;-80
2021/12/02 02:52:44;;;;;;;3.60;1.80;;;5.80;99.90;;;;;;5051614;28;20705;-80
2021/12/02 02:55:20;;;;;;;1.97;1.30;;;5.70;99.90;;;;;;5051532;28;20430;-80
2021/12/02 02:58:02;;;;;;;2.00;1.30;;;5.70;99.90;;;;;;5051472;28;20040;-80
2021/12/02 03:00:41;;;;;;;2.80;1.47;;;5.70;99.90;;;;;;5051169;28;20025;-80
2021/12/02 03:03:25;;;;;;;2.63;1.50;;;5.70;99.90;;;;;;5033578;28;20082;-80
2021/12/02 03:06:19;;;;;;;1.70;1.40;;;5.60;99.90;;;;;;5037857;28;20021;-80
2021/12/02 03:09:25;;;;;;;3.10;1.10;;;5.90;99.90;;;;;;5050990;28;20552;-80
2021/12/02 03:11:43;;;;;;;1.17;1.10;;;5.60;99.90;;;;;;5046254;28;20044;-80
2021/12/02 03:14:15;;;;;;;0.90;0.60;;;5.30;99.90;;;;;;5050562;28;20016;-81
2021/12/02 03:16:44;;;;;;;0.73;0.70;;;5.20;99.90;;;;;;5050291;28;20029;-81
2021/12/02 03:19:15;;;;;;;1.90;0.67;;;5.00;99.90;;;;;;5050537;28;20053;-81
2021/12/02 03:21:42;;;;;;;0.57;0.57;;;4.90;99.90;;;;;;5051032;28;20191;-81
2021/12/02 03:24:07;;;;;;;1.27;0.80;;;4.80;99.90;;;;;;5051061;28;20029;-81
2021/12/02 03:26:35;;;;;;;1.53;0.70;;;4.70;99.90;;;;;;5033177;28;20036;-81
2021/12/02 03:29:01;;;;;;;1.97;0.83;;;4.50;99.90;;;;;;5051078;28;20079;-81
2021/12/02 03:31:27;;;;;;;1.53;0.90;;;4.50;99.90;;;;;;5051088;28;20053;-81
2021/12/02 03:33:53;;;;;;;1.37;0.83;;;4.40;99.90;;;;;;5051077;28;20857;-81
2021/12/02 03:36:19;;;;;;;1.77;0.90;;;4.40;99.90;;;;;;5050847;28;20365;-81
2021/12/02 03:38:45;;;;;;;3.17;1.00;;;4.30;99.90;;;;;;5033212;28;20071;-81
2021/12/02 03:41:12;;;;;;;1.40;0.80;;;4.30;99.90;;;;;;5050720;28;20025;-81
2021/12/02 03:43:39;;;;;;;2.53;0.70;;;4.20;99.90;;;;;;5050573;28;20077;-81
2021/12/02 03:46:06;;;;;;;2.87;0.90;;;4.10;99.90;;;;;;5050579;28;20036;-81
2021/12/02 03:48:33;;;;;;;0.90;0.80;;;4.10;99.90;;;;;;5050442;28;20370;-81
2021/12/02 03:50:58;;;;;;;2.60;1.27;;;4.00;99.90;;;;;;5050559;28;20029;-81
2021/12/02 03:53:24;;;;;;;3.10;1.07;;;4.00;99.90;;;;;;5050214;28;20025;-81
2021/12/02 03:55:50;;;;;;;2.83;1.10;;;4.00;99.90;;;;;;5050247;28;20068;-81
2021/12/02 03:58:15;;;;;;;1.50;0.90;;;4.00;99.90;;;;;;5050410;28;20151;-81
2021/12/02 04:00:41;;;;;;;3.27;1.00;;;4.10;99.90;;;;;;5050292;28;20029;-81
2021/12/02 04:03:07;;;;;;;2.57;0.90;;;4.10;99.90;;;;;;5050404;28;20033;-82
2021/12/02 04:05:32;;;;;;;0.80;0.80;;;4.00;99.90;;;;;;5032517;28;20044;-81
2021/12/02 04:07:58;;;;;;;1.60;0.90;;;4.00;99.90;;;;;;5049993;28;20036;-81
2021/12/02 04:10:25;;;;;;;2.40;1.00;;;4.00;99.90;;;;;;5050276;28;20029;-81
2021/12/02 04:15:25;;;;;;;2.20;0.90;;;4.00;99.90;;;;;;5050182;28;20017;-81
2021/12/02 04:17:51;;;;;;;0.80;0.80;;;4.00;99.90;;;;;;5050223;28;20027;-81
2021/12/02 04:20:22;;;;;;;1.80;1.10;;;4.00;99.90;;;;;;5050034;28;20033;-81
2021/12/02 04:22:48;;;;;;;3.17;1.10;;;4.00;99.90;;;;;;5050335;28;20041;-81
2021/12/02 04:25:16;;;;;;;3.63;1.00;;;4.00;99.90;;;;;;5050153;28;20087;-81
2021/12/02 04:27:42;;;;;;;1.60;0.80;;;3.90;99.90;;;;;;5032107;28;20433;-81
2021/12/02 04:30:11;;;;;;;1.73;0.87;;;3.90;99.90;;;;;;5050086;28;20025;-81
2021/12/02 04:32:37;;;;;;;5.07;1.07;;;3.90;99.90;;;;;;5050071;28;20057;-81
2021/12/02 04:35:03;;;;;;;3.10;1.17;;;3.90;99.90;;;;;;5049986;28;20138;-81
2021/12/02 04:37:29;;;;;;;3.20;0.83;;;3.90;99.90;;;;;;5050083;28;20017;-81
2021/12/02 04:39:55;;;;;;;2.27;0.90;;;3.90;99.90;;;;;;5049956;28;20028;-81
2021/12/02 04:42:21;;;;;;;3.77;0.87;;;3.90;99.90;;;;;;5049949;28;20024;-81
2021/12/02 04:44:47;;;;;;;1.33;0.90;;;3.90;99.90;;;;;;5049895;28;20032;-81
2021/12/02 04:47:12;;;;;;;0.93;0.80;;;3.90;99.90;;;;;;5050150;28;20025;-81
2021/12/02 04:49:38;;;;;;;1.87;0.97;;;3.90;99.90;;;;;;5049825;28;20116;-81
2021/12/02 04:52:04;;;;;;;2.43;0.90;;;4.00;99.90;;;;;;5049777;28;20028;-81
2021/12/02 04:54:30;;;;;;;1.43;0.90;;;4.00;99.90;;;;;;5049832;28;20040;-81
2021/12/02 04:56:55;;;;;;;1.73;1.00;;;4.00;99.90;;;;;;5049547;28;20045;-81
2021/12/02 04:59:21;;;;;;;1.80;1.17;;;4.00;99.90;;;;;;5049770;28;20021;-81
2021/12/02 05:01:46;;;;;;;1.07;0.90;;;4.00;99.90;;;;;;5049811;28;20397;-81
2021/12/02 05:04:12;;;;;;;2.33;1.20;;;4.00;99.90;;;;;;5050697;28;20040;-81
2021/12/02 05:06:38;;;;;;;2.03;1.20;;;4.00;99.90;;;;;;5053862;28;20060;-81
2021/12/02 05:09:03;;;;;;;1.77;1.20;;;4.00;99.90;;;;;;5053447;28;20045;-81
2021/12/02 05:11:29;;;;;;;1.53;1.10;;;4.00;99.90;;;;;;5035557;28;20116;-81
2021/12/02 05:13:55;;;;;;;3.37;1.30;;;4.00;99.90;;;;;;5053393;28;20017;-81
2021/12/02 05:16:20;;;;;;;2.53;1.50;;;4.00;99.90;;;;;;5053453;28;20032;-81
2021/12/02 05:18:46;;;;;;;2.23;1.40;;;4.00;99.90;;;;;;5053824;28;20021;-81
2021/12/02 05:21:12;;;;;;;4.40;1.30;;;4.00;99.90;;;;;;5053721;28;20041;-81
2021/12/02 05:23:37;;;;;;;1.63;1.30;;;4.00;99.90;;;;;;5053207;28;20100;-81
2021/12/02 05:26:03;;;;;;;3.73;1.80;;;4.00;99.90;;;;;;5053371;28;20120;-81
2021/12/02 05:28:31;;;;;;;3.73;1.60;;;4.00;99.90;;;;;;5052517;28;20374;-81
2021/12/02 05:30:57;;;;;;;4.23;1.57;;;4.00;99.90;;;;;;5052775;28;20104;-81
2021/12/02 05:33:22;;;;;;;2.77;1.70;;;4.00;99.90;;;;;;5052746;28;20092;-81
2021/12/02 05:35:48;;;;;;;3.40;1.70;;;4.10;99.90;;;;;;5052514;28;20028;-80
2021/12/02 05:38:14;;;;;;;1.83;1.60;;;4.10;99.90;;;;;;5052547;28;20064;-80
2021/12/02 05:40:39;;;;;;;3.90;1.70;;;4.20;99.90;;;;;;5052638;28;20487;-81
2021/12/02 05:43:05;;;;;;;2.00;1.60;;;4.30;99.90;;;;;;5034540;28;20028;-80
2021/12/02 05:45:31;;;;;;;2.80;1.40;;;4.30;99.90;;;;;;5052364;28;20048;-81
2021/12/02 05:47:57;;;;;;;5.13;1.60;;;4.30;99.90;;;;;;5051993;28;20048;-76
2021/12/02 05:50:23;;;;;;;3.47;1.47;;;4.30;99.90;;;;;;5056130;28;20396;-76
2021/12/02 05:52:48;;;;;;;2.73;1.77;;;4.30;99.90;;;;;;5056073;28;20048;-76
2021/12/02 05:55:14;;;;;;;2.90;1.50;;;4.30;99.90;;;;;;5055889;28;20013;-76
2021/12/02 05:57:40;;;;;;;3.73;2.47;;;4.30;99.90;;;;;;5055579;28;20056;-76
2021/12/02 06:00:07;;;;;;;3.20;1.60;;;4.30;99.90;;;;;;5055883;28;20124;-76
2021/12/02 06:02:36;;;;;;;2.33;1.43;;;4.30;99.90;;;;;;5056026;28;20040;-76
2021/12/02 06:05:01;;;;;;;2.00;1.60;;;4.30;99.90;;;;;;5055467;28;20027;-76
2021/12/02 06:07:27;;;;;;;5.83;2.70;;;4.40;99.90;;;;;;5055609;28;20452;-75
2021/12/02 06:09:53;;;;;;;2.73;1.70;;;4.30;99.90;;;;;;5055424;28;20021;-75
2021/12/02 06:12:18;;;;;;;3.77;1.87;;;4.30;99.90;;;;;;5055247;28;20100;-76
2021/12/02 06:14:44;;;;;;;3.50;1.90;;;4.40;99.90;;;;;;5054957;28;20036;-76
2021/12/02 06:17:10;;;;;;;3.27;2.10;;;4.40;99.90;;;;;;5055512;28;20040;-75
2021/12/02 06:19:35;;;;;;;4.67;2.37;;;4.50;99.90;;;;;;5055221;28;20025;-74
2021/12/02 06:22:02;;;;;;;2.47;1.60;;;4.50;99.90;;;;;;5054968;28;20031;-75
2021/12/02 06:24:30;;;;;;;2.77;1.80;;;4.40;99.90;;;;;;5055087;28;20029;-75
2021/12/02 06:26:56;;;;;;;2.73;1.70;;;4.50;99.90;;;;;;5055386;28;20021;-75
2021/12/02 06:29:22;;;;;;;4.80;1.90;;;4.50;99.90;;;;;;5054972;28;20466;-75
2021/12/02 06:31:48;;;;;;;2.87;1.83;;;4.50;99.90;;;;;;5037129;28;20104;-75
2021/12/02 06:34:13;;;;;;;3.70;2.00;;;4.50;99.90;;;;;;5054967;28;20092;-75
2021/12/02 06:36:39;;;;;;;4.33;2.17;;;4.50;99.90;;;;;;5055146;28;20491;-75
2021/12/02 06:39:06;;;;;;;2.17;1.33;;;4.50;99.90;;;;;;5069179;28;20021;-75
2021/12/02 06:41:33;;;;;;;1.87;1.30;;;4.60;99.90;;;;;;5054489;28;20036;-81
2021/12/02 06:43:59;;;;;;;2.67;1.33;;;4.50;99.90;;;;;;5061091;28;20036;-81
2021/12/02 06:46:24;;;;;;;1.47;1.07;;;4.50;99.90;;;;;;5033795;28;20028;-82
2021/12/02 06:48:50;;;;;;;2.13;1.30;;;4.50;99.90;;;;;;5054018;28;20036;-82
2021/12/02 06:51:18;;;;;;;1.40;1.27;;;4.50;99.90;;;;;;5050126;28;20538;-82
2021/12/02 06:53:44;;;;;;;1.47;1.30;;;4.50;99.90;;;;;;5052917;28;20387;-82
2021/12/02 06:56:09;;;;;;;2.67;1.20;;;4.50;99.90;;;;;;5052541;28;20028;-81
2021/12/02 06:58:35;;;;;;;2.50;1.50;;;4.40;99.90;;;;;;5052505;28;20058;-81
2021/12/02 07:01:01;;;;;;;2.40;1.40;;;4.40;99.90;;;;;;5057959;28;20024;-75
2021/12/02 07:03:27;;;;;;;1.43;1.27;;;4.40;99.90;;;;;;5073942;28;20081;-75
2021/12/02 07:05:53;;;;;;;3.37;1.30;;;4.30;99.90;;;;;;5066968;28;20024;-75
2021/12/02 07:08:20;;;;;;;2.97;1.63;;;4.30;99.90;;;;;;5055882;28;20123;-75
2021/12/02 07:10:45;;;;;;;1.67;1.00;;;4.30;99.90;;;;;;5062360;28;20105;-80
2021/12/02 07:13:11;;;;;;;3.30;1.40;;;4.30;99.90;;;;;;5054261;28;20084;-80
2021/12/02 07:15:50;;;;;;;2.10;1.30;;;4.30;99.90;;;;;;5036047;28;20025;-80
2021/12/02 07:18:15;;;;;;;5.17;1.70;;;4.20;99.90;;;;;;5054081;28;20108;-80
2021/12/02 07:20:44;;;;;;;1.87;1.10;;;4.30;99.90;;;;;;5054776;28;20750;-80
2021/12/02 07:23:10;;;;;;;2.63;1.20;;;4.30;99.90;;;;;;5054764;28;20112;-80
2021/12/02 07:25:39;;;;;;;2.33;1.13;;;4.30;99.90;;;;;;5054433;28;20086;-80
2021/12/02 07:28:04;;;;;;;2.40;1.13;;;4.30;99.90;;;;;;5053856;28;20040;-80
2021/12/02 07:30:30;;;;;;;2.43;1.40;;;4.40;99.90;;;;;;5036626;28;20032;-80
2021/12/02 07:32:58;;;;;;;3.03;1.40;;;4.40;99.90;;;;;;5051487;28;20025;-80
2021/12/02 07:35:24;;;;;;;3.77;1.40;;;4.40;99.90;;;;;;5050839;28;20028;-80
2021/12/02 07:37:52;;;;;;;2.57;1.30;;;4.40;99.90;;;;;;5050582;28;20131;-80
2021/12/02 07:40:20;;;;;;;4.17;1.50;;;4.50;99.90;;;;;;5050793;28;20032;-80
2021/12/02 07:42:47;;;;;;;2.60;1.20;;;4.50;99.90;;;;;;5051358;28;20488;-75
2021/12/02 07:45:14;;;;;;;1.93;1.37;;;4.50;99.90;;;;;;5053782;28;20055;-75
2021/12/02 07:47:40;;;;;;;2.63;1.30;;;4.50;99.90;;;;;;5035627;28;20112;-75
2021/12/02 07:50:12;;;;;;;3.10;1.43;;;4.50;99.90;;;;;;5054331;28;20088;-75
2021/12/02 07:52:59;;;;;;;4.20;1.60;;;4.50;99.90;;;;;;5053658;28;20071;-75
2021/12/02 07:55:26;;;;;;;2.87;1.73;;;4.50;99.90;;;;;;5053553;28;20017;-75
2021/12/02 07:57:52;;;;;;;2.67;1.50;;;4.40;99.90;;;;;;5053273;28;20053;-75
2021/12/02 08:00:21;;;;;;;3.57;1.43;;;4.50;99.90;;;;;;5054053;28;20377;-75
2021/12/02 08:02:50;;;;;;;3.83;1.40;;;4.50;99.90;;;;;;5053443;28;20048;-75
2021/12/02 08:05:16;;;;;;;2.87;1.93;;;4.50;99.90;;;;;;5060003;28;20038;-75
2021/12/02 08:07:44;;;;;;;3.67;1.53;;;4.60;99.90;;;;;;5066575;28;20036;-75
2021/12/02 08:10:12;;;;;;;4.33;1.87;;;4.60;99.90;;;;;;5035816;22;20148;-75
2021/12/02 08:12:40;;;;;;;3.87;1.43;;;4.70;99.90;;;;;;5022823;28;20024;-75
2021/12/02 08:15:08;;;;;;;3.57;1.90;;;4.80;99.90;;;;;;5021721;28;20039;-75
2021/12/02 08:17:34;;;;;;;2.67;1.43;;;4.90;99.90;;;;;;5010127;28;20045;-75
2021/12/02 08:20:00;;;;;;;5.80;1.80;;;4.90;99.90;;;;;;5021635;28;20025;-75
2021/12/02 08:22:26;;;;;;;4.80;1.40;;;5.00;99.90;;;;;;5013208;28;20083;-75
2021/12/02 08:24:54;;;;;;;3.70;1.20;;;5.10;99.90;;;;;;5021151;28;20026;-75
2021/12/02 08:27:22;;;;;;;3.10;1.50;;;5.20;99.90;;;;;;5028493;28;20041;-75
2021/12/02 08:29:48;;;;;;;5.93;1.20;;;5.40;99.90;;;;;;5011414;28;20736;-82
2021/12/02 08:32:14;;;;;;;3.10;1.20;;;5.40;99.90;;;;;;5010854;28;20048;-82
2021/12/02 08:34:40;;;;;;;4.67;1.37;;;5.40;99.90;;;;;;5010554;28;20035;-81
2021/12/02 08:37:06;;;;;;;2.40;1.50;;;5.50;99.90;;;;;;4992599;28;20103;-82
2021/12/02 08:39:33;;;;;;;2.90;1.60;;;5.50;99.90;;;;;;5010055;28;20063;-82
2021/12/02 08:41:59;;;;;;;3.13;1.40;;;5.60;99.90;;;;;;5014484;28;20141;-82
2021/12/02 08:44:25;;;;;;;2.73;1.50;;;5.70;99.90;;;;;;5014427;28;20204;-82
2021/12/02 08:46:52;;;;;;;3.47;1.47;;;5.70;99.90;;;;;;5014481;28;20045;-82
2021/12/02 08:49:20;;;;;;;3.13;1.27;;;5.70;99.90;;;;;;5014414;28;20029;-82
2021/12/02 08:51:49;;;;;;;2.67;1.30;;;5.70;99.90;;;;;;5013985;28;20033;-82
2021/12/02 08:54:15;;;;;;;2.53;1.20;;;5.70;99.90;;;;;;5014107;28;20026;-82
2021/12/02 08:56:41;;;;;;;3.13;1.20;;;5.70;99.90;;;;;;5014608;28;20102;-83
2021/12/02 08:59:07;;;;;;;3.67;1.30;;;5.70;99.90;;;;;;5014032;28;20514;-82
2021/12/02 09:01:34;;;;;;;2.63;1.30;;;5.80;99.90;;;;;;5014098;28;20037;-82
2021/12/02 09:04:02;;;;;;;2.63;1.30;;;5.90;99.90;;;;;;5013903;28;20034;-82
2021/12/02 09:06:29;;;;;;;2.83;1.50;;;6.00;99.90;;;;;;5014187;28;20041;-82
2021/12/02 09:08:57;;;;;;;3.00;1.00;;;6.00;99.90;;;;;;5013454;28;20041;-82
2021/12/02 09:11:22;;;;;;;2.83;1.30;;;6.10;99.90;;;;;;5013751;28;20026;-82
2021/12/02 09:13:48;;;;;;;2.40;1.20;;;6.10;99.90;;;;;;5013918;28;20038;-81
2021/12/02 09:16:14;;;;;;;4.03;1.33;;;6.10;99.90;;;;;;4996136;28;20037;-81
2021/12/02 09:18:40;;;;;;;2.63;1.30;;;6.20;99.90;;;;;;5023832;28;20052;-76
2021/12/02 09:21:08;;;;;;;5.03;1.47;;;6.40;99.90;;;;;;5024055;28;20033;-76
2021/12/02 09:23:34;;;;;;;2.60;1.40;;;6.60;99.90;;;;;;5007510;28;20130;-81
2021/12/02 09:26:00;;;;;;;5.50;1.40;;;6.70;99.90;;;;;;4995968;28;20042;-81
2021/12/02 09:28:26;;;;;;;5.60;1.23;;;6.70;99.90;;;;;;5014062;28;20045;-81
2021/12/02 09:30:52;;;;;;;1.83;1.20;;;6.70;99.90;;;;;;4995861;28;20037;-80
2021/12/02 09:33:18;;;;;;;3.03;1.10;;;6.60;99.90;;;;;;5015829;28;20033;-81
2021/12/02 09:35:44;;;;;;;4.40;1.37;;;6.60;99.90;;;;;;5014094;28;20037;-81
2021/12/02 09:38:10;;;;;;;3.63;1.10;;;6.50;99.90;;;;;;5013413;28;20117;-81
2021/12/02 09:40:42;;;;;;;2.10;1.10;;;6.50;99.90;;;;;;5014448;28;20112;-81
2021/12/02 09:43:10;;;;;;;4.03;1.20;;;6.40;99.90;;;;;;4996066;28;20410;-81
2021/12/02 09:45:37;;;;;;;3.77;1.40;;;6.40;99.90;;;;;;5014750;28;20064;-80
2021/12/02 09:48:03;;;;;;;7.03;1.33;;;6.40;99.90;;;;;;5013997;28;20042;-81
2021/12/02 09:50:33;;;;;;;4.93;1.43;;;6.40;99.90;;;;;;5013756;28;21218;-81
2021/12/02 09:53:07;;;;;;;3.37;1.40;;;6.40;99.90;;;;;;5014489;28;20094;-81
2021/12/02 09:58:00;;;;;;;3.77;1.30;;;6.50;99.90;;;;;;5014169;28;20099;-80
2021/12/02 10:00:40;;;;;;;3.77;1.60;;;6.70;99.90;;;;;;5013780;28;20096;-81
2021/12/02 10:04:10;;;;;;;4.17;1.27;;;6.80;99.90;;;;;;5014565;28;20033;-80
2021/12/02 10:06:22;;;;;;;;;;;6.80;99.90;;;;;;5012011;28;20108;-80
2021/12/02 10:11:54;;;;;;;3.67;1.60;;;6.80;99.90;;;;;;5013519;28;20026;-81
2021/12/02 10:14:34;;;;;;;4.33;1.43;;;6.90;99.90;;;;;;5013470;28;20056;-81
2021/12/02 10:17:19;;;;;;;3.87;1.40;;;6.70;99.90;;;;;;5012668;28;20057;-80
2021/12/02 10:20:13;;;;;;;4.85;1.48;;;6.80;99.90;;;;;;5012754;28;20478;-80
2021/12/02 10:22:40;;;;;;;7.20;1.60;;;6.90;99.90;;;;;;5010807;28;20427;-80
2021/12/02 10:25:06;;;;;;;5.07;1.50;;;6.80;99.90;;;;;;5012660;28;20022;-80
2021/12/02 10:27:32;;;;;;;4.70;1.10;;;6.90;99.90;;;;;;5012826;28;20037;-80
2021/12/02 10:29:57;;;;;;;4.03;1.90;;;6.90;99.90;;;;;;5012998;28;20394;-80
2021/12/02 10:32:30;;;;;;;5.60;1.37;;;6.80;99.90;;;;;;5012452;28;20033;-80
2021/12/02 10:35:03;;;;;;;3.40;1.40;;;6.70;99.90;;;;;;4994615;28;20026;-80
2021/12/02 10:37:36;;;;;;;7.10;1.93;;;6.60;99.90;;;;;;4994105;28;20034;-80
2021/12/02 10:40:12;;;;;;;6.17;1.53;;;6.50;99.90;;;;;;5012271;28;20153;-80
2021/12/02 10:42:42;;;;;;;5.17;1.87;;;6.50;99.90;;;;;;5012955;28;20037;-80
2021/12/02 10:45:21;;;;;;;2.80;1.30;;;6.40;99.90;;;;;;5012764;28;20125;-79
2021/12/02 10:47:51;;;;;;;4.03;1.13;;;6.40;99.90;;;;;;4995061;28;20413;-79
2021/12/02 10:50:17;;;;;;;2.80;1.20;;;6.50;99.90;;;;;;4995118;28;20034;-74
2021/12/02 10:52:43;;;;;;;3.37;1.40;;;6.50;99.90;;;;;;5019698;28;20075;-74
2021/12/02 10:55:14;;;;;;;5.77;1.40;;;6.60;99.90;;;;;;5007515;28;20029;-74
2021/12/02 10:57:50;;;;;;;3.97;1.10;;;6.60;99.90;;;;;;5022023;28;20026;-74
2021/12/02 11:00:24;;;;;;;5.97;1.30;;;6.60;99.90;;;;;;4996875;28;20431;-74
2021/12/02 11:02:53;;;;;;;3.63;1.07;;;6.70;99.90;;;;;;5027306;28;20112;-75
2021/12/02 11:05:32;;;;;;;3.30;1.33;;;6.90;99.90;;;;;;5025638;28;20034;-75
2021/12/02 11:08:05;;;;;;;4.13;1.20;;;6.90;99.90;;;;;;5018400;28;20057;-75
2021/12/02 11:10:51;;;;;;;3.63;1.40;;;6.90;99.90;;;;;;5019801;28;20034;-75
2021/12/02 11:13:25;;;;;;;5.50;1.50;;;6.80;99.90;;;;;;5021931;28;20112;-74
2021/12/02 11:15:52;;;;;;;5.03;1.30;;;6.70;99.90;;;;;;5022618;28;20057;-75
2021/12/02 11:18:20;;;;;;;5.67;1.60;;;6.80;99.90;;;;;;5013895;28;20099;-74
2021/12/02 11:20:56;;;;;;;4.03;1.33;;;6.90;99.90;;;;;;5022373;28;20140;-81
2021/12/02 11:23:31;;;;;;;6.63;1.60;;;7.00;99.90;;;;;;5014545;28;20049;-75
2021/12/02 11:25:59;;;;;;;3.00;1.33;;;7.00;99.90;;;;;;5018992;28;20038;-74
2021/12/02 11:28:28;;;;;;;3.33;1.40;;;7.00;99.90;;;;;;5014480;28;20038;-74
2021/12/02 11:30:54;;;;;;;5.33;1.50;;;7.00;99.90;;;;;;5025081;28;20396;-74
2021/12/02 11:33:20;;;;;;;4.50;1.50;;;7.00;99.90;;;;;;5016049;28;20026;-75
2021/12/02 11:35:48;;;;;;;3.83;1.50;;;6.90;99.90;;;;;;5010049;28;20091;-74
2021/12/02 11:38:18;;;;;;;7.83;2.00;;;6.90;99.90;;;;;;5011270;28;20038;-74
2021/12/02 11:40:47;;;;;;;5.47;1.30;;;6.80;99.90;;;;;;4993495;28;20045;-74
2021/12/02 11:43:17;;;;;;;5.27;1.53;;;6.70;99.90;;;;;;4993415;28;20360;-74
2021/12/02 11:45:48;;;;;;;3.30;1.40;;;6.70;99.90;;;;;;5011433;28;20549;-75
2021/12/02 11:48:18;;;;;;;6.37;1.27;;;6.70;99.90;;;;;;5011205;28;20367;-74
2021/12/02 11:50:44;;;;;;;6.73;1.40;;;6.60;99.90;;;;;;5011301;28;20029;-74
2021/12/02 11:53:13;;;;;;;3.73;1.17;;;6.70;99.90;;;;;;5010849;28;20129;-74
2021/12/02 11:55:41;;;;;;;4.10;1.20;;;6.70;99.90;;;;;;5010929;28;20022;-74
2021/12/02 11:58:09;;;;;;;5.00;1.67;;;6.80;99.90;;;;;;5011039;28;20113;-74
2021/12/02 12:00:36;;;;;;;2.33;1.33;;;6.80;99.90;;;;;;5011154;28;20038;-74
2021/12/02 12:03:20;;;;;;;4.83;1.57;;;6.80;99.90;;;;;;4992898;28;20419;-74
2021/12/02 12:05:57;;;;;;;1.90;1.10;;;6.70;99.90;;;;;;5011085;28;20037;-80
2021/12/02 12:08:36;;;;;;;3.37;1.40;;;6.70;99.90;;;;;;5008486;28;20655;-80
2021/12/02 12:11:27;;;;;;;4.40;1.40;;;6.70;99.90;;;;;;5076327;28;20029;-80
2021/12/02 12:13:59;;;;;;;2.50;1.23;;;6.70;99.90;;;;;;5075403;28;20037;-80
2021/12/02 12:16:32;;;;;;;4.40;1.57;;;6.80;99.90;;;;;;5075300;28;20036;-81
2021/12/02 12:19:21;;;;;;;7.10;1.33;;;6.90;99.90;;;;;;5075973;28;20040;-80
2021/12/02 12:22:01;;;;;;;3.90;1.50;;;6.90;99.90;;;;;;5074978;28;20035;-81
2021/12/02 12:24:44;;;;;;;2.73;1.30;;;7.00;99.90;;;;;;5075758;28;20039;-81
2021/12/02 12:27:32;;;;;;;2.10;1.20;;;7.30;99.90;;;;;;5075260;28;20059;-80
2021/12/02 12:30:05;;;;;;;3.03;1.40;;;7.40;99.90;;;;;;5075760;28;20142;-80
2021/12/02 12:32:47;;;;;;;3.23;1.43;;;7.70;99.90;;;;;;5074623;28;20024;-81
2021/12/02 12:38:44;;;;;;;3.57;1.73;;;7.70;99.90;;;;;;5074478;28;20030;-80
2021/12/02 12:41:14;;;;;;;3.60;1.50;;;7.70;99.90;;;;;;5032376;28;20283;-80
2021/12/02 12:43:48;;;;;;;2.27;1.10;;;7.60;99.90;;;;;;5067560;28;20048;-80
2021/12/02 12:46:16;;;;;;;6.17;1.20;;;7.40;99.90;;;;;;5075338;28;20032;-80
2021/12/02 12:48:42;;;;;;;6.23;1.30;;;7.30;99.90;;;;;;5074503;28;20498;-80
2021/12/02 12:51:32;;;;;;;2.37;0.97;;;7.10;99.90;;;;;;5074237;28;20020;-80
2021/12/02 12:53:59;;;;;;;2.97;0.90;;;7.00;99.90;;;;;;5074319;28;20028;-80
2021/12/02 12:56:31;;;;;;;2.37;1.00;;;7.00;99.90;;;;;;5073897;28;20025;-80
2021/12/02 12:59:03;;;;;;;3.63;1.07;;;6.80;99.90;;;;;;5073269;28;20032;-80
2021/12/02 13:01:29;;;;;;;4.07;1.00;;;6.80;99.90;;;;;;5073888;28;20025;-80
2021/12/02 13:04:04;;;;;;;3.97;1.07;;;6.80;99.90;;;;;;5073957;28;20037;-80
2021/12/02 13:06:33;;;;;;;1.30;0.80;;;6.80;99.90;;;;;;5072889;28;20040;-80
2021/12/02 13:09:02;;;;;;;2.30;1.00;;;6.80;99.90;;;;;;5045462;28;20486;-74
2021/12/02 13:11:33;;;;;;;1.43;1.00;;;6.80;99.90;;;;;;5009904;28;20022;-74
2021/12/02 13:14:03;;;;;;;3.73;1.20;;;6.80;99.90;;;;;;5004760;28;20122;-74
2021/12/02 13:16:35;;;;;;;2.70;1.40;;;6.60;99.90;;;;;;5010308;28;20074;-74
2021/12/02 13:19:14;;;;;;;2.93;1.07;;;6.60;99.90;;;;;;5008235;28;20033;-74
2021/12/02 13:21:43;;;;;;;2.20;1.00;;;6.50;99.90;;;;;;5011170;28;20136;-75
2021/12/02 13:24:14;;;;;;;3.80;1.20;;;6.40;99.90;;;;;;5025434;28;20078;-75